createdAt,value
2022-11-21T09:22:04.685Z,10.50
2022-11-21T09:24:33.293Z,10.90
2022-11-21T09:27:01.832Z,11.10
2022-11-21T09:29:30.526Z,11.30
2022-11-21T09:31:59.095Z,11.50
2022-11-21T09:34:27.989Z,11.80
2022-11-21T09:36:56.846Z,11.90
2022-11-21T09:39:27.397Z,12.10
2022-11-21T09:42:08.645Z,12.30
2022-11-21T09:44:59.317Z,12.50
2022-11-21T09:47:30.283Z,12.70
2022-11-21T09:50:02.085Z,13.10
2022-11-21T09:52:38.543Z,13.10
2022-11-21T09:55:18.528Z,12.90
2022-11-21T09:57:50.483Z,13.20
2022-11-21T10:00:23.245Z,13.40
2022-11-21T10:02:53.183Z,13.30
2022-11-21T10:05:31.919Z,13.40
2022-11-21T10:08:06.541Z,13.30
2022-11-21T10:10:49.601Z,12.80
2022-11-21T10:13:29.326Z,12.50
2022-11-21T10:16:05.366Z,12.50
2022-11-21T10:19:00.350Z,12.50
2022-11-21T10:21:45.574Z,12.50
2022-11-21T10:24:33.431Z,12.80
2022-11-21T10:27:07.834Z,13.00
2022-11-21T10:29:40.459Z,13.20
2022-11-21T10:32:19.875Z,13.50
2022-11-21T10:34:50.806Z,13.70
2022-11-21T10:37:38.367Z,14.00
2022-11-21T10:40:17.523Z,13.80
2022-11-21T10:42:55.846Z,13.80
2022-11-21T10:45:25.595Z,14.10
2022-11-21T10:48:05.197Z,14.30
2022-11-21T10:50:55.121Z,14.60
2022-11-21T10:53:44.315Z,14.60
2022-11-21T10:56:17.143Z,13.60
2022-11-21T10:58:50.811Z,13.70
2022-11-21T11:01:24.141Z,13.70
2022-11-21T11:04:28.228Z,14.50
2022-11-21T11:07:00.146Z,15.40
2022-11-21T11:09:32.450Z,15.50
2022-11-21T11:12:47.764Z,14.60
2022-11-21T11:15:24.449Z,14.50
2022-11-21T11:18:01.516Z,13.70
2022-11-21T11:20:38.207Z,13.60
2022-11-21T11:23:18.914Z,14.70
2022-11-21T11:25:49.643Z,15.40
2022-11-21T11:28:20.252Z,15.50
2022-11-21T11:30:52.493Z,15.90
2022-11-21T11:33:36.265Z,15.50
2022-11-21T11:36:17.739Z,14.40
2022-11-21T11:43:41.203Z,12.30
2022-11-21T11:47:17.823Z,11.80
2022-11-21T11:50:30.220Z,12.70
2022-11-21T11:53:19.659Z,13.10
2022-11-21T11:56:01.665Z,13.00
2022-11-21T11:59:02.490Z,12.60
2022-11-21T12:01:38.485Z,12.30
2022-11-21T12:04:12.779Z,12.00
2022-11-21T12:08:05.926Z,11.90
2022-11-21T12:10:05.210Z,11.60
2022-11-21T12:12:40.565Z,11.30
2022-11-21T12:15:34.258Z,11.10
2022-11-21T12:18:17.852Z,11.20
2022-11-21T12:20:56.264Z,11.00
2022-11-21T12:23:30.131Z,10.80
2022-11-21T12:26:19.123Z,10.70
2022-11-21T12:29:01.859Z,10.70
2022-11-21T12:31:43.305Z,10.90
2022-11-21T12:34:32.055Z,11.50
2022-11-21T12:37:14.212Z,11.90
2022-11-21T12:40:09.336Z,12.10
2022-11-21T12:44:17.344Z,12.20
2022-11-21T12:52:36.530Z,11.60
2022-11-21T13:15:42.101Z,11.20
2022-11-21T13:19:21.374Z,11.00
2022-11-21T13:23:09.117Z,10.90
2022-11-21T13:26:54.278Z,10.70
2022-11-21T13:30:43.558Z,10.60
2022-11-21T13:33:59.771Z,10.60
2022-11-21T13:42:12.737Z,10.50
2022-11-21T13:46:00.218Z,10.40
2022-11-21T13:49:49.404Z,10.40
2022-11-21T13:56:58.082Z,10.40
2022-11-21T13:59:50.724Z,10.40
2022-11-21T14:03:06.424Z,10.30
2022-11-21T14:06:13.364Z,10.30
2022-11-21T14:09:08.041Z,10.30
2022-11-21T14:11:49.823Z,10.30
2022-11-21T14:14:50.732Z,10.30
2022-11-21T14:17:38.212Z,10.30
